sensor_id;sensor_type;location;lat;lon;timestamp;P1;durP1;ratioP1;P2;durP2;ratioP2
57395;SDS011;43222;52.912;6.940;2023-02-23T00:02:24;83.90;;;48.63;;
57395;SDS011;43222;52.912;6.940;2023-02-23T00:04:50;78.85;;;46.00;;
57395;SDS011;43222;52.912;6.940;2023-02-23T00:07:17;75.20;;;45.78;;
57395;SDS011;43222;52.912;6.940;2023-02-23T00:09:45;74.05;;;46.05;;
57395;SDS011;43222;52.912;6.940;2023-02-23T00:12:11;81.65;;;45.70;;
57395;SDS011;43222;52.912;6.940;2023-02-23T00:14:37;83.32;;;48.22;;
57395;SDS011;43222;52.912;6.940;2023-02-23T00:17:04;79.80;;;46.03;;
57395;SDS011;43222;52.912;6.940;2023-02-23T00:19:37;76.18;;;45.63;;
57395;SDS011;43222;52.912;6.940;2023-02-23T00:22:04;83.95;;;47.10;;
57395;SDS011;43222;52.912;6.940;2023-02-23T00:24:30;79.68;;;45.65;;
57395;SDS011;43222;52.912;6.940;2023-02-23T00:26:56;80.78;;;45.75;;
57395;SDS011;43222;52.912;6.940;2023-02-23T00:29:23;72.55;;;46.00;;
57395;SDS011;43222;52.912;6.940;2023-02-23T00:31:50;73.45;;;45.38;;
57395;SDS011;43222;52.912;6.940;2023-02-23T00:34:17;77.38;;;45.95;;
57395;SDS011;43222;52.912;6.940;2023-02-23T00:36:51;91.65;;;54.78;;
57395;SDS011;43222;52.912;6.940;2023-02-23T00:39:19;91.18;;;52.45;;
57395;SDS011;43222;52.912;6.940;2023-02-23T00:41:46;81.78;;;48.90;;
57395;SDS011;43222;52.912;6.940;2023-02-23T00:44:12;87.22;;;50.38;;
57395;SDS011;43222;52.912;6.940;2023-02-23T00:46:41;80.30;;;47.97;;
57395;SDS011;43222;52.912;6.940;2023-02-23T00:49:08;83.75;;;49.15;;
57395;SDS011;43222;52.912;6.940;2023-02-23T00:51:35;84.13;;;49.10;;
57395;SDS011;43222;52.912;6.940;2023-02-23T00:54:01;82.70;;;48.05;;
57395;SDS011;43222;52.912;6.940;2023-02-23T00:56:28;79.53;;;46.45;;
57395;SDS011;43222;52.912;6.940;2023-02-23T00:58:54;78.72;;;46.22;;
57395;SDS011;43222;52.912;6.940;2023-02-23T01:01:21;75.57;;;46.45;;
57395;SDS011;43222;52.912;6.940;2023-02-23T01:03:47;79.85;;;45.83;;
57395;SDS011;43222;52.912;6.940;2023-02-23T01:06:14;77.65;;;45.22;;
57395;SDS011;43222;52.912;6.940;2023-02-23T01:08:41;74.65;;;45.15;;
57395;SDS011;43222;52.912;6.940;2023-02-23T01:11:08;76.30;;;45.38;;
57395;SDS011;43222;52.912;6.940;2023-02-23T01:13:35;77.32;;;45.47;;
57395;SDS011;43222;52.912;6.940;2023-02-23T01:16:05;75.82;;;44.47;;
57395;SDS011;43222;52.912;6.940;2023-02-23T01:18:31;77.07;;;45.90;;
57395;SDS011;43222;52.912;6.940;2023-02-23T01:20:58;76.88;;;46.08;;
57395;SDS011;43222;52.912;6.940;2023-02-23T01:23:25;75.65;;;44.05;;
57395;SDS011;43222;52.912;6.940;2023-02-23T01:25:51;78.10;;;45.97;;
57395;SDS011;43222;52.912;6.940;2023-02-23T01:28:17;78.15;;;45.63;;
57395;SDS011;43222;52.912;6.940;2023-02-23T01:30:43;77.38;;;45.90;;
57395;SDS011;43222;52.912;6.940;2023-02-23T01:33:09;77.88;;;45.95;;
57395;SDS011;43222;52.912;6.940;2023-02-23T01:35:36;75.82;;;45.70;;
57395;SDS011;43222;52.912;6.940;2023-02-23T01:38:03;76.35;;;45.45;;
57395;SDS011;43222;52.912;6.940;2023-02-23T01:40:29;76.03;;;45.33;;
57395;SDS011;43222;52.912;6.940;2023-02-23T01:42:56;80.97;;;46.03;;
57395;SDS011;43222;52.912;6.940;2023-02-23T01:45:25;75.43;;;45.40;;
57395;SDS011;43222;52.912;6.940;2023-02-23T01:47:52;82.05;;;46.85;;
57395;SDS011;43222;52.912;6.940;2023-02-23T01:50:19;81.80;;;46.35;;
57395;SDS011;43222;52.912;6.940;2023-02-23T01:52:46;78.60;;;46.10;;
57395;SDS011;43222;52.912;6.940;2023-02-23T01:55:15;80.53;;;45.22;;
57395;SDS011;43222;52.912;6.940;2023-02-23T01:57:47;80.28;;;45.40;;
57395;SDS011;43222;52.912;6.940;2023-02-23T02:00:14;76.97;;;45.97;;
57395;SDS011;43222;52.912;6.940;2023-02-23T02:02:44;75.97;;;45.90;;
57395;SDS011;43222;52.912;6.940;2023-02-23T02:05:12;79.05;;;47.75;;
57395;SDS011;43222;52.912;6.940;2023-02-23T02:07:41;82.63;;;47.30;;
57395;SDS011;43222;52.912;6.940;2023-02-23T02:10:09;86.18;;;47.28;;
57395;SDS011;43222;52.912;6.940;2023-02-23T02:12:36;82.15;;;47.40;;
57395;SDS011;43222;52.912;6.940;2023-02-23T02:15:03;78.65;;;47.30;;
57395;SDS011;43222;52.912;6.940;2023-02-23T02:17:35;77.32;;;46.92;;
57395;SDS011;43222;52.912;6.940;2023-02-23T02:27:47;81.18;;;46.58;;
57395;SDS011;43222;52.912;6.940;2023-02-23T02:51:18;89.60;;;50.40;;
57395;SDS011;43222;52.912;6.940;2023-02-23T02:56:12;88.65;;;50.53;;
57395;SDS011;43222;52.912;6.940;2023-02-23T02:58:38;80.70;;;48.72;;
57395;SDS011;43222;52.912;6.940;2023-02-23T03:01:08;91.70;;;50.63;;
57395;SDS011;43222;52.912;6.940;2023-02-23T03:03:55;91.93;;;51.40;;
57395;SDS011;43222;52.912;6.940;2023-02-23T03:06:45;92.82;;;50.63;;
57395;SDS011;43222;52.912;6.940;2023-02-23T03:09:35;86.07;;;48.85;;
57395;SDS011;43222;52.912;6.940;2023-02-23T03:15:27;87.57;;;52.33;;
57395;SDS011;43222;52.912;6.940;2023-02-23T03:18:16;98.82;;;52.67;;
57395;SDS011;43222;52.912;6.940;2023-02-23T03:21:06;90.03;;;50.95;;
57395;SDS011;43222;52.912;6.940;2023-02-23T03:24:02;98.07;;;53.25;;
57395;SDS011;43222;52.912;6.940;2023-02-23T03:26:54;93.07;;;53.17;;
57395;SDS011;43222;52.912;6.940;2023-02-23T03:32:30;95.18;;;53.03;;
57395;SDS011;43222;52.912;6.940;2023-02-23T03:38:05;102.75;;;54.53;;
57395;SDS011;43222;52.912;6.940;2023-02-23T03:40:52;97.68;;;54.05;;
57395;SDS011;43222;52.912;6.940;2023-02-23T03:43:38;90.38;;;52.20;;
57395;SDS011;43222;52.912;6.940;2023-02-23T03:46:25;111.43;;;56.45;;
57395;SDS011;43222;52.912;6.940;2023-02-23T03:49:11;104.03;;;53.50;;
57395;SDS011;43222;52.912;6.940;2023-02-23T03:52:08;102.03;;;53.13;;
57395;SDS011;43222;52.912;6.940;2023-02-23T03:54:56;108.20;;;56.30;;
57395;SDS011;43222;52.912;6.940;2023-02-23T03:57:42;109.70;;;53.60;;
57395;SDS011;43222;52.912;6.940;2023-02-23T04:00:31;106.38;;;53.92;;
57395;SDS011;43222;52.912;6.940;2023-02-23T04:03:16;105.25;;;54.28;;
57395;SDS011;43222;52.912;6.940;2023-02-23T04:06:02;104.65;;;54.70;;
57395;SDS011;43222;52.912;6.940;2023-02-23T04:08:48;102.07;;;54.05;;
57395;SDS011;43222;52.912;6.940;2023-02-23T04:11:49;107.00;;;55.00;;
57395;SDS011;43222;52.912;6.940;2023-02-23T04:14:42;99.03;;;52.95;;
57395;SDS011;43222;52.912;6.940;2023-02-23T04:17:10;103.70;;;53.10;;
57395;SDS011;43222;52.912;6.940;2023-02-23T04:19:36;102.63;;;54.47;;
57395;SDS011;43222;52.912;6.940;2023-02-23T04:22:02;102.13;;;53.15;;
57395;SDS011;43222;52.912;6.940;2023-02-23T04:24:28;105.53;;;53.30;;
57395;SDS011;43222;52.912;6.940;2023-02-23T04:26:55;103.57;;;53.10;;
57395;SDS011;43222;52.912;6.940;2023-02-23T04:29:21;108.90;;;54.80;;
57395;SDS011;43222;52.912;6.940;2023-02-23T04:31:47;101.22;;;52.75;;
57395;SDS011;43222;52.912;6.940;2023-02-23T04:34:13;108.15;;;53.08;;
57395;SDS011;43222;52.912;6.940;2023-02-23T04:36:39;101.60;;;52.20;;
57395;SDS011;43222;52.912;6.940;2023-02-23T04:39:06;108.05;;;53.28;;
57395;SDS011;43222;52.912;6.940;2023-02-23T04:41:32;110.93;;;54.80;;
57395;SDS011;43222;52.912;6.940;2023-02-23T04:43:58;112.63;;;53.70;;
57395;SDS011;43222;52.912;6.940;2023-02-23T04:46:24;109.38;;;54.30;;
57395;SDS011;43222;52.912;6.940;2023-02-23T04:48:50;112.32;;;52.67;;
57395;SDS011;43222;52.912;6.940;2023-02-23T04:51:16;105.28;;;53.20;;
57395;SDS011;43222;52.912;6.940;2023-02-23T04:53:43;115.00;;;54.28;;
57395;SDS011;43222;52.912;6.940;2023-02-23T04:56:09;112.63;;;53.60;;
57395;SDS011;43222;52.912;6.940;2023-02-23T04:58:36;112.43;;;54.05;;
57395;SDS011;43222;52.912;6.940;2023-02-23T05:01:08;110.53;;;54.35;;
57395;SDS011;43222;52.912;6.940;2023-02-23T05:03:34;109.50;;;53.40;;
57395;SDS011;43222;52.912;6.940;2023-02-23T05:06:00;97.28;;;49.88;;
57395;SDS011;43222;52.912;6.940;2023-02-23T05:08:26;99.53;;;52.28;;
57395;SDS011;43222;52.912;6.940;2023-02-23T05:10:52;103.65;;;51.60;;
57395;SDS011;43222;52.912;6.940;2023-02-23T05:13:18;122.97;;;55.90;;
57395;SDS011;43222;52.912;6.940;2023-02-23T05:15:45;96.25;;;51.08;;
57395;SDS011;43222;52.912;6.940;2023-02-23T05:18:11;98.18;;;51.90;;
57395;SDS011;43222;52.912;6.940;2023-02-23T05:20:37;114.30;;;57.03;;
57395;SDS011;43222;52.912;6.940;2023-02-23T05:23:03;109.25;;;53.60;;
57395;SDS011;43222;52.912;6.940;2023-02-23T05:25:29;111.10;;;54.20;;
57395;SDS011;43222;52.912;6.940;2023-02-23T05:27:55;105.53;;;54.92;;
57395;SDS011;43222;52.912;6.940;2023-02-23T05:30:21;113.82;;;54.63;;
57395;SDS011;43222;52.912;6.940;2023-02-23T05:32:47;118.57;;;56.15;;
57395;SDS011;43222;52.912;6.940;2023-02-23T05:35:13;118.13;;;54.97;;
57395;SDS011;43222;52.912;6.940;2023-02-23T05:37:39;121.28;;;56.90;;
57395;SDS011;43222;52.912;6.940;2023-02-23T05:40:05;114.75;;;54.50;;
57395;SDS011;43222;52.912;6.940;2023-02-23T05:42:32;115.53;;;54.40;;
57395;SDS011;43222;52.912;6.940;2023-02-23T05:44:58;114.68;;;54.67;;
57395;SDS011;43222;52.912;6.940;2023-02-23T05:47:24;124.57;;;55.22;;
57395;SDS011;43222;52.912;6.940;2023-02-23T05:49:50;114.38;;;52.58;;
57395;SDS011;43222;52.912;6.940;2023-02-23T05:52:16;114.82;;;53.75;;
57395;SDS011;43222;52.912;6.940;2023-02-23T05:54:42;121.90;;;54.88;;
57395;SDS011;43222;52.912;6.940;2023-02-23T05:57:09;123.82;;;55.05;;
57395;SDS011;43222;52.912;6.940;2023-02-23T05:59:35;115.53;;;53.92;;
57395;SDS011;43222;52.912;6.940;2023-02-23T06:02:01;129.32;;;54.42;;
57395;SDS011;43222;52.912;6.940;2023-02-23T06:04:29;125.25;;;54.35;;
57395;SDS011;43222;52.912;6.940;2023-02-23T06:06:56;124.20;;;53.67;;
57395;SDS011;43222;52.912;6.940;2023-02-23T06:09:22;108.35;;;51.35;;
57395;SDS011;43222;52.912;6.940;2023-02-23T06:11:48;117.68;;;53.30;;
57395;SDS011;43222;52.912;6.940;2023-02-23T06:14:15;119.60;;;52.90;;
57395;SDS011;43222;52.912;6.940;2023-02-23T06:16:41;113.68;;;53.00;;
57395;SDS011;43222;52.912;6.940;2023-02-23T06:19:09;118.93;;;53.60;;
57395;SDS011;43222;52.912;6.940;2023-02-23T06:21:35;121.90;;;54.13;;
57395;SDS011;43222;52.912;6.940;2023-02-23T06:24:01;113.63;;;52.78;;
57395;SDS011;43222;52.912;6.940;2023-02-23T06:26:27;120.60;;;52.72;;
57395;SDS011;43222;52.912;6.940;2023-02-23T06:28:53;116.97;;;52.90;;
57395;SDS011;43222;52.912;6.940;2023-02-23T06:31:20;116.18;;;51.65;;
57395;SDS011;43222;52.912;6.940;2023-02-23T06:33:46;126.82;;;51.15;;
57395;SDS011;43222;52.912;6.940;2023-02-23T06:36:12;114.28;;;49.78;;
57395;SDS011;43222;52.912;6.940;2023-02-23T06:38:38;127.30;;;53.22;;
57395;SDS011;43222;52.912;6.940;2023-02-23T06:41:08;110.30;;;51.08;;
57395;SDS011;43222;52.912;6.940;2023-02-23T06:43:34;128.73;;;52.53;;
57395;SDS011;43222;52.912;6.940;2023-02-23T06:46:00;117.10;;;51.17;;
57395;SDS011;43222;52.912;6.940;2023-02-23T06:48:26;113.05;;;51.40;;
57395;SDS011;43222;52.912;6.940;2023-02-23T06:50:52;110.43;;;48.92;;
57395;SDS011;43222;52.912;6.940;2023-02-23T06:53:18;123.65;;;50.83;;
57395;SDS011;43222;52.912;6.940;2023-02-23T06:55:46;105.05;;;48.45;;
57395;SDS011;43222;52.912;6.940;2023-02-23T06:58:12;113.22;;;48.72;;
57395;SDS011;43222;52.912;6.940;2023-02-23T07:00:38;109.85;;;47.55;;
57395;SDS011;43222;52.912;6.940;2023-02-23T07:03:07;109.18;;;48.88;;
57395;SDS011;43222;52.912;6.940;2023-02-23T07:05:33;107.90;;;48.83;;
57395;SDS011;43222;52.912;6.940;2023-02-23T07:07:59;103.43;;;45.35;;
57395;SDS011;43222;52.912;6.940;2023-02-23T07:10:25;105.82;;;45.70;;
57395;SDS011;43222;52.912;6.940;2023-02-23T07:12:52;104.57;;;47.00;;
57395;SDS011;43222;52.912;6.940;2023-02-23T07:15:18;101.35;;;46.55;;
57395;SDS011;43222;52.912;6.940;2023-02-23T07:17:44;97.15;;;44.90;;
57395;SDS011;43222;52.912;6.940;2023-02-23T07:20:13;98.72;;;44.03;;
57395;SDS011;43222;52.912;6.940;2023-02-23T07:22:40;103.18;;;46.50;;
57395;SDS011;43222;52.912;6.940;2023-02-23T07:25:06;99.95;;;44.40;;
57395;SDS011;43222;52.912;6.940;2023-02-23T07:27:33;95.55;;;45.42;;
57395;SDS011;43222;52.912;6.940;2023-02-23T07:29:59;96.22;;;42.50;;
57395;SDS011;43222;52.912;6.940;2023-02-23T07:32:27;96.68;;;43.72;;
57395;SDS011;43222;52.912;6.940;2023-02-23T07:34:53;86.28;;;41.08;;
57395;SDS011;43222;52.912;6.940;2023-02-23T07:37:19;90.03;;;42.58;;
57395;SDS011;43222;52.912;6.940;2023-02-23T07:39:45;87.68;;;41.70;;
57395;SDS011;43222;52.912;6.940;2023-02-23T07:42:12;92.25;;;41.13;;
57395;SDS011;43222;52.912;6.940;2023-02-23T07:44:38;86.72;;;40.20;;
57395;SDS011;43222;52.912;6.940;2023-02-23T07:47:05;86.00;;;39.47;;
57395;SDS011;43222;52.912;6.940;2023-02-23T07:49:31;79.57;;;39.10;;
57395;SDS011;43222;52.912;6.940;2023-02-23T07:51:58;78.97;;;37.35;;
57395;SDS011;43222;52.912;6.940;2023-02-23T07:54:24;71.75;;;36.45;;
57395;SDS011;43222;52.912;6.940;2023-02-23T07:56:50;71.82;;;36.65;;
57395;SDS011;43222;52.912;6.940;2023-02-23T07:59:16;76.32;;;38.47;;
57395;SDS011;43222;52.912;6.940;2023-02-23T08:01:42;72.32;;;36.28;;
57395;SDS011;43222;52.912;6.940;2023-02-23T08:04:09;74.05;;;36.35;;
57395;SDS011;43222;52.912;6.940;2023-02-23T08:06:35;71.15;;;35.60;;
57395;SDS011;43222;52.912;6.940;2023-02-23T08:09:01;72.38;;;35.28;;
57395;SDS011;43222;52.912;6.940;2023-02-23T08:11:28;65.55;;;33.90;;
57395;SDS011;43222;52.912;6.940;2023-02-23T08:13:54;66.60;;;36.60;;
57395;SDS011;43222;52.912;6.940;2023-02-23T08:16:25;67.90;;;34.53;;
57395;SDS011;43222;52.912;6.940;2023-02-23T08:18:51;65.90;;;34.17;;
57395;SDS011;43222;52.912;6.940;2023-02-23T08:21:17;64.15;;;32.95;;
57395;SDS011;43222;52.912;6.940;2023-02-23T08:23:43;71.63;;;37.35;;
57395;SDS011;43222;52.912;6.940;2023-02-23T08:26:09;72.43;;;33.45;;
57395;SDS011;43222;52.912;6.940;2023-02-23T08:28:35;61.88;;;32.75;;
57395;SDS011;43222;52.912;6.940;2023-02-23T08:31:01;58.28;;;32.40;;
57395;SDS011;43222;52.912;6.940;2023-02-23T08:33:27;62.55;;;32.40;;
57395;SDS011;43222;52.912;6.940;2023-02-23T08:35:57;57.90;;;31.65;;
57395;SDS011;43222;52.912;6.940;2023-02-23T08:38:23;57.42;;;32.08;;
57395;SDS011;43222;52.912;6.940;2023-02-23T08:40:49;57.25;;;30.92;;
57395;SDS011;43222;52.912;6.940;2023-02-23T08:43:15;56.58;;;31.13;;
57395;SDS011;43222;52.912;6.940;2023-02-23T08:45:41;53.83;;;30.80;;
57395;SDS011;43222;52.912;6.940;2023-02-23T08:48:07;56.38;;;30.48;;
57395;SDS011;43222;52.912;6.940;2023-02-23T08:50:33;54.85;;;28.60;;
57395;SDS011;43222;52.912;6.940;2023-02-23T08:52:59;54.60;;;30.05;;
57395;SDS011;43222;52.912;6.940;2023-02-23T08:55:26;45.97;;;27.02;;
57395;SDS011;43222;52.912;6.940;2023-02-23T08:57:52;49.60;;;27.52;;
57395;SDS011;43222;52.912;6.940;2023-02-23T09:00:18;50.55;;;28.48;;
57395;SDS011;43222;52.912;6.940;2023-02-23T09:02:44;50.85;;;27.23;;
57395;SDS011;43222;52.912;6.940;2023-02-23T09:05:14;48.17;;;28.02;;
57395;SDS011;43222;52.912;6.940;2023-02-23T09:07:40;50.00;;;29.67;;
57395;SDS011;43222;52.912;6.940;2023-02-23T09:10:10;52.15;;;32.08;;
57395;SDS011;43222;52.912;6.940;2023-02-23T09:12:37;47.67;;;28.00;;
57395;SDS011;43222;52.912;6.940;2023-02-23T09:15:03;52.03;;;28.95;;
57395;SDS011;43222;52.912;6.940;2023-02-23T09:17:29;47.25;;;29.05;;
57395;SDS011;43222;52.912;6.940;2023-02-23T09:19:55;52.20;;;28.60;;
57395;SDS011;43222;52.912;6.940;2023-02-23T09:22:21;47.97;;;27.60;;
57395;SDS011;43222;52.912;6.940;2023-02-23T09:24:47;45.67;;;27.50;;
57395;SDS011;43222;52.912;6.940;2023-02-23T09:27:13;46.60;;;27.38;;
57395;SDS011;43222;52.912;6.940;2023-02-23T09:29:39;43.90;;;26.35;;
57395;SDS011;43222;52.912;6.940;2023-02-23T09:32:06;49.20;;;29.55;;
57395;SDS011;43222;52.912;6.940;2023-02-23T09:34:32;48.47;;;28.90;;
57395;SDS011;43222;52.912;6.940;2023-02-23T09:37:00;48.45;;;28.00;;
57395;SDS011;43222;52.912;6.940;2023-02-23T09:39:26;44.03;;;26.27;;
57395;SDS011;43222;52.912;6.940;2023-02-23T09:41:55;46.92;;;28.23;;
57395;SDS011;43222;52.912;6.940;2023-02-23T09:44:36;47.88;;;26.98;;
57395;SDS011;43222;52.912;6.940;2023-02-23T09:47:20;45.78;;;27.27;;
57395;SDS011;43222;52.912;6.940;2023-02-23T09:49:50;44.97;;;26.27;;
57395;SDS011;43222;52.912;6.940;2023-02-23T09:52:18;46.50;;;27.52;;
57395;SDS011;43222;52.912;6.940;2023-02-23T09:54:46;45.92;;;27.60;;
57395;SDS011;43222;52.912;6.940;2023-02-23T09:57:20;44.28;;;26.60;;
57395;SDS011;43222;52.912;6.940;2023-02-23T09:59:48;42.10;;;25.95;;
57395;SDS011;43222;52.912;6.940;2023-02-23T10:02:17;39.42;;;25.00;;
57395;SDS011;43222;52.912;6.940;2023-02-23T10:04:47;43.95;;;27.10;;
57395;SDS011;43222;52.912;6.940;2023-02-23T10:07:31;44.65;;;25.85;;
57395;SDS011;43222;52.912;6.940;2023-02-23T10:10:06;46.50;;;27.13;;
57395;SDS011;43222;52.912;6.940;2023-02-23T10:12:40;47.45;;;26.42;;
57395;SDS011;43222;52.912;6.940;2023-02-23T10:22:30;48.17;;;27.25;;
57395;SDS011;43222;52.912;6.940;2023-02-23T10:25:02;48.85;;;25.38;;
57395;SDS011;43222;52.912;6.940;2023-02-23T10:27:31;48.80;;;27.67;;
57395;SDS011;43222;52.912;6.940;2023-02-23T10:30:03;46.95;;;26.42;;
57395;SDS011;43222;52.912;6.940;2023-02-23T10:32:44;46.67;;;26.13;;
57395;SDS011;43222;52.912;6.940;2023-02-23T10:35:14;55.17;;;28.65;;
57395;SDS011;43222;52.912;6.940;2023-02-23T10:37:40;47.63;;;26.60;;
57395;SDS011;43222;52.912;6.940;2023-02-23T10:40:11;51.20;;;26.30;;
57395;SDS011;43222;52.912;6.940;2023-02-23T10:42:38;46.05;;;26.20;;
57395;SDS011;43222;52.912;6.940;2023-02-23T10:45:11;45.60;;;25.35;;
57395;SDS011;43222;52.912;6.940;2023-02-23T10:47:42;53.65;;;27.40;;
57395;SDS011;43222;52.912;6.940;2023-02-23T10:50:10;50.47;;;26.33;;
57395;SDS011;43222;52.912;6.940;2023-02-23T10:52:40;50.28;;;27.23;;
57395;SDS011;43222;52.912;6.940;2023-02-23T10:55:09;49.30;;;27.15;;
57395;SDS011;43222;52.912;6.940;2023-02-23T10:57:46;46.75;;;25.58;;
57395;SDS011;43222;52.912;6.940;2023-02-23T11:02:42;46.72;;;25.75;;
57395;SDS011;43222;52.912;6.940;2023-02-23T11:10:34;45.38;;;24.35;;
57395;SDS011;43222;52.912;6.940;2023-02-23T11:13:00;44.60;;;25.45;;
57395;SDS011;43222;52.912;6.940;2023-02-23T11:15:28;46.90;;;24.30;;
57395;SDS011;43222;52.912;6.940;2023-02-23T11:18:03;46.67;;;25.08;;
57395;SDS011;43222;52.912;6.940;2023-02-23T11:20:34;49.38;;;24.65;;
57395;SDS011;43222;52.912;6.940;2023-02-23T11:23:09;47.20;;;24.95;;
57395;SDS011;43222;52.912;6.940;2023-02-23T11:25:35;48.35;;;26.45;;
57395;SDS011;43222;52.912;6.940;2023-02-23T11:28:02;47.70;;;26.13;;
57395;SDS011;43222;52.912;6.940;2023-02-23T11:30:35;49.10;;;26.05;;
57395;SDS011;43222;52.912;6.940;2023-02-23T11:33:06;52.65;;;26.23;;
57395;SDS011;43222;52.912;6.940;2023-02-23T11:35:37;53.95;;;27.48;;
57395;SDS011;43222;52.912;6.940;2023-02-23T11:38:24;51.70;;;26.77;;
57395;SDS011;43222;52.912;6.940;2023-02-23T11:43:25;53.35;;;26.58;;
57395;SDS011;43222;52.912;6.940;2023-02-23T11:45:51;52.13;;;27.25;;
57395;SDS011;43222;52.912;6.940;2023-02-23T11:48:24;52.50;;;27.70;;
57395;SDS011;43222;52.912;6.940;2023-02-23T11:50:51;53.38;;;27.58;;
57395;SDS011;43222;52.912;6.940;2023-02-23T11:53:19;56.63;;;29.05;;
57395;SDS011;43222;52.912;6.940;2023-02-23T11:55:49;55.75;;;29.83;;
57395;SDS011;43222;52.912;6.940;2023-02-23T12:00:53;62.25;;;30.80;;
57395;SDS011;43222;52.912;6.940;2023-02-23T12:03:20;66.45;;;30.45;;
57395;SDS011;43222;52.912;6.940;2023-02-23T12:05:49;63.08;;;30.92;;
57395;SDS011;43222;52.912;6.940;2023-02-23T12:08:25;63.70;;;30.75;;
57395;SDS011;43222;52.912;6.940;2023-02-23T12:10:57;69.65;;;30.83;;
57395;SDS011;43222;52.912;6.940;2023-02-23T12:13:26;65.38;;;31.15;;
57395;SDS011;43222;52.912;6.940;2023-02-23T12:15:59;64.68;;;31.35;;
57395;SDS011;43222;52.912;6.940;2023-02-23T12:18:31;59.42;;;30.58;;
57395;SDS011;43222;52.912;6.940;2023-02-23T12:21:06;62.75;;;29.92;;
57395;SDS011;43222;52.912;6.940;2023-02-23T12:23:34;62.80;;;29.92;;
57395;SDS011;43222;52.912;6.940;2023-02-23T12:26:04;66.03;;;31.15;;
57395;SDS011;43222;52.912;6.940;2023-02-23T12:28:41;62.17;;;30.95;;
57395;SDS011;43222;52.912;6.940;2023-02-23T12:31:17;70.60;;;30.35;;
57395;SDS011;43222;52.912;6.940;2023-02-23T12:33:48;71.65;;;30.65;;
57395;SDS011;43222;52.912;6.940;2023-02-23T12:41:13;72.78;;;29.48;;
57395;SDS011;43222;52.912;6.940;2023-02-23T12:43:45;83.20;;;28.80;;
57395;SDS011;43222;52.912;6.940;2023-02-23T12:46:17;79.18;;;28.83;;
57395;SDS011;43222;52.912;6.940;2023-02-23T12:51:40;71.68;;;27.88;;
57395;SDS011;43222;52.912;6.940;2023-02-23T12:54:10;73.43;;;28.25;;
57395;SDS011;43222;52.912;6.940;2023-02-23T12:59:11;68.32;;;26.45;;
57395;SDS011;43222;52.912;6.940;2023-02-23T13:06:55;73.78;;;27.35;;
57395;SDS011;43222;52.912;6.940;2023-02-23T13:16:51;67.60;;;25.73;;
57395;SDS011;43222;52.912;6.940;2023-02-23T13:19:21;67.63;;;26.35;;
57395;SDS011;43222;52.912;6.940;2023-02-23T13:21:53;58.60;;;25.55;;
57395;SDS011;43222;52.912;6.940;2023-02-23T13:24:34;59.17;;;24.23;;
57395;SDS011;43222;52.912;6.940;2023-02-23T13:29:40;57.17;;;24.85;;
57395;SDS011;43222;52.912;6.940;2023-02-23T13:32:10;60.55;;;26.63;;
57395;SDS011;43222;52.912;6.940;2023-02-23T13:34:41;59.80;;;25.60;;
57395;SDS011;43222;52.912;6.940;2023-02-23T13:37:08;61.40;;;25.00;;
57395;SDS011;43222;52.912;6.940;2023-02-23T13:44:42;57.97;;;23.48;;
57395;SDS011;43222;52.912;6.940;2023-02-23T13:49:45;64.47;;;25.85;;
57395;SDS011;43222;52.912;6.940;2023-02-23T13:55:02;65.97;;;24.27;;
57395;SDS011;43222;52.912;6.940;2023-02-23T13:57:30;68.82;;;25.50;;
57395;SDS011;43222;52.912;6.940;2023-02-23T13:59:56;67.93;;;26.17;;
57395;SDS011;43222;52.912;6.940;2023-02-23T14:05:04;64.53;;;25.88;;
57395;SDS011;43222;52.912;6.940;2023-02-23T14:07:31;72.43;;;26.60;;
57395;SDS011;43222;52.912;6.940;2023-02-23T14:10:05;87.13;;;28.38;;
57395;SDS011;43222;52.912;6.940;2023-02-23T14:12:33;89.10;;;28.52;;
57395;SDS011;43222;52.912;6.940;2023-02-23T14:17:54;100.93;;;29.42;;
57395;SDS011;43222;52.912;6.940;2023-02-23T14:23:16;75.20;;;25.33;;
57395;SDS011;43222;52.912;6.940;2023-02-23T14:28:23;83.03;;;26.58;;
57395;SDS011;43222;52.912;6.940;2023-02-23T14:36:49;88.85;;;26.95;;
57395;SDS011;43222;52.912;6.940;2023-02-23T14:41:30;83.00;;;26.90;;
57395;SDS011;43222;52.912;6.940;2023-02-23T14:43:59;81.07;;;26.00;;
57395;SDS011;43222;52.912;6.940;2023-02-23T14:46:31;30.27;;;9.27;;
57395;SDS011;43222;52.912;6.940;2023-02-23T14:56:35;25.27;;;5.30;;
57395;SDS011;43222;52.912;6.940;2023-02-23T14:59:13;35.70;;;6.25;;
57395;SDS011;43222;52.912;6.940;2023-02-23T15:01:42;33.53;;;6.35;;
57395;SDS011;43222;52.912;6.940;2023-02-23T15:04:13;43.85;;;5.88;;
57395;SDS011;43222;52.912;6.940;2023-02-23T15:06:41;37.72;;;5.72;;
57395;SDS011;43222;52.912;6.940;2023-02-23T15:09:56;42.30;;;7.80;;
57395;SDS011;43222;52.912;6.940;2023-02-23T15:11:57;42.10;;;6.07;;
57395;SDS011;43222;52.912;6.940;2023-02-23T15:14:24;32.88;;;5.65;;
57395;SDS011;43222;52.912;6.940;2023-02-23T15:16:50;35.70;;;6.00;;
57395;SDS011;43222;52.912;6.940;2023-02-23T15:19:17;41.50;;;7.10;;
57395;SDS011;43222;52.912;6.940;2023-02-23T15:21:48;38.55;;;6.75;;
57395;SDS011;43222;52.912;6.940;2023-02-23T15:24:14;40.03;;;6.53;;
57395;SDS011;43222;52.912;6.940;2023-02-23T15:26:43;32.30;;;5.63;;
57395;SDS011;43222;52.912;6.940;2023-02-23T15:31:37;40.35;;;5.72;;
57395;SDS011;43222;52.912;6.940;2023-02-23T15:34:10;36.33;;;5.28;;
57395;SDS011;43222;52.912;6.940;2023-02-23T15:36:37;33.65;;;5.13;;
57395;SDS011;43222;52.912;6.940;2023-02-23T15:39:05;38.55;;;5.47;;
57395;SDS011;43222;52.912;6.940;2023-02-23T15:41:33;44.55;;;5.88;;
57395;SDS011;43222;52.912;6.940;2023-02-23T15:44:14;41.20;;;5.60;;
57395;SDS011;43222;52.912;6.940;2023-02-23T15:46:43;33.22;;;5.72;;
57395;SDS011;43222;52.912;6.940;2023-02-23T15:49:11;40.03;;;6.07;;
57395;SDS011;43222;52.912;6.940;2023-02-23T15:51:44;43.33;;;6.10;;
57395;SDS011;43222;52.912;6.940;2023-02-23T15:54:21;41.30;;;5.65;;
57395;SDS011;43222;52.912;6.940;2023-02-23T15:56:49;42.60;;;6.28;;
57395;SDS011;43222;52.912;6.940;2023-02-23T15:59:25;47.95;;;6.13;;
57395;SDS011;43222;52.912;6.940;2023-02-23T16:01:52;39.42;;;5.93;;
57395;SDS011;43222;52.912;6.940;2023-02-23T16:04:19;45.53;;;6.15;;
57395;SDS011;43222;52.912;6.940;2023-02-23T16:06:50;42.85;;;6.53;;
57395;SDS011;43222;52.912;6.940;2023-02-23T16:14:28;41.90;;;6.15;;
57395;SDS011;43222;52.912;6.940;2023-02-23T16:16:56;35.20;;;5.95;;
57395;SDS011;43222;52.912;6.940;2023-02-23T16:19:22;38.67;;;5.60;;
57395;SDS011;43222;52.912;6.940;2023-02-23T16:21:51;42.17;;;6.03;;
57395;SDS011;43222;52.912;6.940;2023-02-23T16:24:18;40.50;;;5.80;;
57395;SDS011;43222;52.912;6.940;2023-02-23T16:26:47;35.30;;;5.28;;
57395;SDS011;43222;52.912;6.940;2023-02-23T16:31:47;36.35;;;5.03;;
57395;SDS011;43222;52.912;6.940;2023-02-23T16:34:18;36.37;;;6.17;;
57395;SDS011;43222;52.912;6.940;2023-02-23T16:36:47;40.42;;;6.18;;
57395;SDS011;43222;52.912;6.940;2023-02-23T16:39:14;35.80;;;5.10;;
57395;SDS011;43222;52.912;6.940;2023-02-23T16:41:43;31.52;;;4.78;;
57395;SDS011;43222;52.912;6.940;2023-02-23T16:44:13;36.28;;;5.43;;
57395;SDS011;43222;52.912;6.940;2023-02-23T16:49:16;39.83;;;5.43;;
57395;SDS011;43222;52.912;6.940;2023-02-23T16:51:42;33.70;;;5.22;;